sensor_id;sensor_type;location;lat;lon;timestamp;pressure;altitude;pressure_sealevel;temperature;humidity
62201;BME280;48197;42.732;27.192;2023-04-06T00:01:34;99421.47;;;4.89;100.00
62201;BME280;48197;42.732;27.192;2023-04-06T00:04:00;99417.59;;;4.94;100.00
62201;BME280;48197;42.732;27.192;2023-04-06T00:06:27;99415.63;;;4.94;100.00
62201;BME280;48197;42.732;27.192;2023-04-06T00:08:55;99412.13;;;4.94;100.00
62201;BME280;48197;42.732;27.192;2023-04-06T00:11:22;99417.13;;;4.88;100.00
62201;BME280;48197;42.732;27.192;2023-04-06T00:13:48;99413.97;;;4.86;100.00
62201;BME280;48197;42.732;27.192;2023-04-06T00:16:15;99417.88;;;4.85;100.00
62201;BME280;48197;42.732;27.192;2023-04-06T00:18:42;99416.69;;;4.82;100.00
62201;BME280;48197;42.732;27.192;2023-04-06T00:21:11;99416.69;;;4.82;100.00
62201;BME280;48197;42.732;27.192;2023-04-06T00:23:37;99406.88;;;4.81;100.00
62201;BME280;48197;42.732;27.192;2023-04-06T00:26:04;99412.78;;;4.83;100.00
62201;BME280;48197;42.732;27.192;2023-04-06T00:28:30;99404.56;;;4.83;100.00
62201;BME280;48197;42.732;27.192;2023-04-06T00:30:57;99399.44;;;4.82;100.00
62201;BME280;48197;42.732;27.192;2023-04-06T00:33:23;99401.00;;;4.79;100.00
62201;BME280;48197;42.732;27.192;2023-04-06T00:35:50;99397.84;;;4.77;100.00
62201;BME280;48197;42.732;27.192;2023-04-06T00:38:17;99393.13;;;4.78;100.00
62201;BME280;48197;42.732;27.192;2023-04-06T00:40:43;99393.13;;;4.78;100.00
62201;BME280;48197;42.732;27.192;2023-04-06T00:43:11;99392.00;;;4.79;100.00
62201;BME280;48197;42.732;27.192;2023-04-06T00:45:41;99386.09;;;4.77;100.00
62201;BME280;48197;42.732;27.192;2023-04-06T00:48:08;99382.53;;;4.73;100.00
62201;BME280;48197;42.732;27.192;2023-04-06T00:50:35;99373.94;;;4.74;100.00
62201;BME280;48197;42.732;27.192;2023-04-06T00:53:02;99379.44;;;4.74;100.00
62201;BME280;48197;42.732;27.192;2023-04-06T00:55:28;99385.69;;;4.75;100.00
62201;BME280;48197;42.732;27.192;2023-04-06T00:57:58;99379.03;;;4.76;100.00
62201;BME280;48197;42.732;27.192;2023-04-06T01:00:26;99386.16;;;4.80;100.00
62201;BME280;48197;42.732;27.192;2023-04-06T01:02:53;99379.91;;;4.83;100.00
62201;BME280;48197;42.732;27.192;2023-04-06T01:05:19;99379.16;;;4.86;100.00
62201;BME280;48197;42.732;27.192;2023-04-06T01:07:46;99374.91;;;4.89;100.00
62201;BME280;48197;42.732;27.192;2023-04-06T01:10:22;99373.38;;;4.91;100.00
62201;BME280;48197;42.732;27.192;2023-04-06T01:12:48;99374.56;;;4.94;100.00
62201;BME280;48197;42.732;27.192;2023-04-06T01:15:15;99373.00;;;4.93;100.00
62201;BME280;48197;42.732;27.192;2023-04-06T01:17:41;99375.72;;;4.93;100.00
62201;BME280;48197;42.732;27.192;2023-04-06T01:20:08;99365.94;;;4.92;100.00
62201;BME280;48197;42.732;27.192;2023-04-06T01:22:35;99373.31;;;4.88;100.00
62201;BME280;48197;42.732;27.192;2023-04-06T01:25:02;99371.34;;;4.85;100.00
62201;BME280;48197;42.732;27.192;2023-04-06T01:27:29;99365.03;;;4.81;100.00
62201;BME280;48197;42.732;27.192;2023-04-06T01:29:56;99361.41;;;4.73;100.00
62201;BME280;48197;42.732;27.192;2023-04-06T01:32:22;99359.38;;;4.66;100.00
62201;BME280;48197;42.732;27.192;2023-04-06T01:34:49;99349.06;;;4.53;100.00
62201;BME280;48197;42.732;27.192;2023-04-06T01:37:15;99353.59;;;4.41;100.00
62201;BME280;48197;42.732;27.192;2023-04-06T01:39:42;99355.78;;;4.28;100.00
62201;BME280;48197;42.732;27.192;2023-04-06T01:42:09;99356.44;;;4.18;100.00
62201;BME280;48197;42.732;27.192;2023-04-06T01:44:36;99348.19;;;4.15;100.00
62201;BME280;48197;42.732;27.192;2023-04-06T01:47:03;99352.41;;;4.08;100.00
62201;BME280;48197;42.732;27.192;2023-04-06T01:49:30;99354.28;;;4.04;100.00
62201;BME280;48197;42.732;27.192;2023-04-06T01:51:57;99348.81;;;4.04;100.00
62201;BME280;48197;42.732;27.192;2023-04-06T01:54:24;99350.78;;;4.04;100.00
62201;BME280;48197;42.732;27.192;2023-04-06T01:56:50;99351.56;;;4.04;100.00
62201;BME280;48197;42.732;27.192;2023-04-06T01:59:18;99347.63;;;4.02;100.00
62201;BME280;48197;42.732;27.192;2023-04-06T02:01:45;99349.16;;;3.99;100.00
62201;BME280;48197;42.732;27.192;2023-04-06T02:04:11;99352.31;;;4.01;100.00
62201;BME280;48197;42.732;27.192;2023-04-06T02:06:39;99350.78;;;4.04;100.00
62201;BME280;48197;42.732;27.192;2023-04-06T02:09:06;99350.03;;;4.07;100.00
62201;BME280;48197;42.732;27.192;2023-04-06T02:11:32;99342.66;;;4.11;100.00
62201;BME280;48197;42.732;27.192;2023-04-06T02:13:58;99348.97;;;4.15;100.00
62201;BME280;48197;42.732;27.192;2023-04-06T02:16:27;99340.84;;;4.22;100.00
62201;BME280;48197;42.732;27.192;2023-04-06T02:18:53;99330.31;;;4.24;100.00
62201;BME280;48197;42.732;27.192;2023-04-06T02:21:20;99329.13;;;4.22;100.00
62201;BME280;48197;42.732;27.192;2023-04-06T02:23:47;99322.41;;;4.16;100.00
62201;BME280;48197;42.732;27.192;2023-04-06T02:26:15;99338.44;;;4.17;100.00
62201;BME280;48197;42.732;27.192;2023-04-06T02:28:42;99332.69;;;4.26;100.00
62201;BME280;48197;42.732;27.192;2023-04-06T02:31:08;99331.56;;;4.30;100.00
62201;BME280;48197;42.732;27.192;2023-04-06T02:33:35;99327.69;;;4.32;100.00
62201;BME280;48197;42.732;27.192;2023-04-06T02:36:01;99327.69;;;4.32;100.00
62201;BME280;48197;42.732;27.192;2023-04-06T02:38:28;99340.66;;;4.38;100.00
62201;BME280;48197;42.732;27.192;2023-04-06T02:40:54;99338.78;;;4.42;100.00
62201;BME280;48197;42.732;27.192;2023-04-06T02:43:20;99339.13;;;4.41;100.00
62201;BME280;48197;42.732;27.192;2023-04-06T02:45:47;99332.41;;;4.35;100.00
62201;BME280;48197;42.732;27.192;2023-04-06T02:48:13;99333.09;;;4.28;100.00
62201;BME280;48197;42.732;27.192;2023-04-06T02:50:40;99330.75;;;4.26;100.00
62201;BME280;48197;42.732;27.192;2023-04-06T02:53:07;99337.44;;;4.29;100.00
62201;BME280;48197;42.732;27.192;2023-04-06T02:55:34;99337.88;;;4.35;100.00
62201;BME280;48197;42.732;27.192;2023-04-06T02:58:01;99341.09;;;4.40;100.00
62201;BME280;48197;42.732;27.192;2023-04-06T03:00:27;99331.81;;;4.48;100.00
62201;BME280;48197;42.732;27.192;2023-04-06T03:02:55;99338.47;;;4.51;100.00
62201;BME280;48197;42.732;27.192;2023-04-06T03:05:21;99334.97;;;4.50;100.00
62201;BME280;48197;42.732;27.192;2023-04-06T03:07:48;99338.13;;;4.53;100.00
62201;BME280;48197;42.732;27.192;2023-04-06T03:10:15;99332.66;;;4.53;100.00
62201;BME280;48197;42.732;27.192;2023-04-06T03:12:41;99329.50;;;4.54;100.00
62201;BME280;48197;42.732;27.192;2023-04-06T03:15:08;99341.94;;;4.48;100.00
62201;BME280;48197;42.732;27.192;2023-04-06T03:17:35;99336.41;;;4.41;100.00
62201;BME280;48197;42.732;27.192;2023-04-06T03:20:02;99341.41;;;4.35;100.00
62201;BME280;48197;42.732;27.192;2023-04-06T03:22:29;99344.09;;;4.32;100.00
62201;BME280;48197;42.732;27.192;2023-04-06T03:24:55;99345.66;;;4.29;100.00
62201;BME280;48197;42.732;27.192;2023-04-06T03:27:21;99353.53;;;4.34;100.00
62201;BME280;48197;42.732;27.192;2023-04-06T03:29:48;99352.41;;;4.39;100.00
62201;BME280;48197;42.732;27.192;2023-04-06T03:32:15;99354.81;;;4.44;100.00
62201;BME280;48197;42.732;27.192;2023-04-06T03:34:41;99351.25;;;4.40;100.00
62201;BME280;48197;42.732;27.192;2023-04-06T03:37:08;99354.66;;;4.33;100.00
62201;BME280;48197;42.732;27.192;2023-04-06T03:39:35;99359.22;;;4.22;100.00
62201;BME280;48197;42.732;27.192;2023-04-06T03:42:02;99355.19;;;4.12;100.00
62201;BME280;48197;42.732;27.192;2023-04-06T03:44:29;99362.44;;;4.01;100.00
62201;BME280;48197;42.732;27.192;2023-04-06T03:46:56;99352.94;;;3.91;100.00
62201;BME280;48197;42.732;27.192;2023-04-06T03:49:23;99357.63;;;3.91;100.00
62201;BME280;48197;42.732;27.192;2023-04-06T03:51:50;99356.88;;;3.94;100.00
62201;BME280;48197;42.732;27.192;2023-04-06T03:54:16;99353.81;;;3.99;100.00
62201;BME280;48197;42.732;27.192;2023-04-06T03:56:43;99360.97;;;4.07;100.00
62201;BME280;48197;42.732;27.192;2023-04-06T03:59:09;99364.22;;;4.16;100.00
62201;BME280;48197;42.732;27.192;2023-04-06T04:01:36;99367.00;;;4.20;100.00
62201;BME280;48197;42.732;27.192;2023-04-06T04:04:03;99369.72;;;4.20;100.00
62201;BME280;48197;42.732;27.192;2023-04-06T04:06:29;99360.41;;;4.24;100.00
62201;BME280;48197;42.732;27.192;2023-04-06T04:08:56;99360.53;;;4.32;100.00
62201;BME280;48197;42.732;27.192;2023-04-06T04:11:22;99357.88;;;4.39;100.00
62201;BME280;48197;42.732;27.192;2023-04-06T04:13:49;99357.16;;;4.45;100.00
62201;BME280;48197;42.732;27.192;2023-04-06T04:16:15;99353.28;;;4.46;100.00
62201;BME280;48197;42.732;27.192;2023-04-06T04:18:42;99345.06;;;4.46;100.00
62201;BME280;48197;42.732;27.192;2023-04-06T04:21:09;99350.22;;;4.52;100.00
62201;BME280;48197;42.732;27.192;2023-04-06T04:23:36;99349.13;;;4.60;100.00
62201;BME280;48197;42.732;27.192;2023-04-06T04:26:04;99356.66;;;4.66;100.00
62201;BME280;48197;42.732;27.192;2023-04-06T04:28:31;99359.81;;;4.68;100.00
62201;BME280;48197;42.732;27.192;2023-04-06T04:30:58;99361.38;;;4.69;100.00
62201;BME280;48197;42.732;27.192;2023-04-06T04:33:24;99368.84;;;4.73;100.00
62201;BME280;48197;42.732;27.192;2023-04-06T04:35:51;99364.19;;;4.77;100.00
62201;BME280;48197;42.732;27.192;2023-04-06T04:38:17;99369.31;;;4.78;100.00
62201;BME280;48197;42.732;27.192;2023-04-06T04:40:44;99363.00;;;4.74;100.00
62201;BME280;48197;42.732;27.192;2023-04-06T04:43:11;99369.25;;;4.75;100.00
62201;BME280;48197;42.732;27.192;2023-04-06T04:45:37;99364.19;;;4.77;100.00
62201;BME280;48197;42.732;27.192;2023-04-06T04:48:04;99373.19;;;4.77;100.00
62201;BME280;48197;42.732;27.192;2023-04-06T04:50:31;99365.41;;;4.79;100.00
62201;BME280;48197;42.732;27.192;2023-04-06T04:52:57;99364.63;;;4.79;100.00
62201;BME280;48197;42.732;27.192;2023-04-06T04:55:24;99370.44;;;4.77;100.00
62201;BME280;48197;42.732;27.192;2023-04-06T04:57:51;99371.25;;;4.78;100.00
62201;BME280;48197;42.732;27.192;2023-04-06T05:00:16;99375.94;;;4.77;100.00
62201;BME280;48197;42.732;27.192;2023-04-06T05:02:43;99384.19;;;4.81;100.00
62201;BME280;48197;42.732;27.192;2023-04-06T05:05:10;99381.47;;;4.81;100.00
62201;BME280;48197;42.732;27.192;2023-04-06T05:07:36;99375.97;;;4.81;100.00
62201;BME280;48197;42.732;27.192;2023-04-06T05:10:03;99377.13;;;4.80;100.00
62201;BME280;48197;42.732;27.192;2023-04-06T05:12:29;99377.88;;;4.77;100.00
62201;BME280;48197;42.732;27.192;2023-04-06T05:14:55;99372.88;;;4.82;100.00
62201;BME280;48197;42.732;27.192;2023-04-06T05:17:22;99373.31;;;4.88;100.00
62201;BME280;48197;42.732;27.192;2023-04-06T05:19:49;99373.78;;;4.94;100.00
62201;BME280;48197;42.732;27.192;2023-04-06T05:22:16;99370.31;;;5.00;100.00
62201;BME280;48197;42.732;27.192;2023-04-06T05:24:44;99364.19;;;5.14;100.00
62201;BME280;48197;42.732;27.192;2023-04-06T05:27:10;99371.81;;;5.31;100.00
62201;BME280;48197;42.732;27.192;2023-04-06T05:29:37;99369.56;;;5.44;100.00
62201;BME280;48197;42.732;27.192;2023-04-06T05:32:04;99363.38;;;5.55;100.00
62201;BME280;48197;42.732;27.192;2023-04-06T05:34:31;99366.22;;;5.65;100.00
62201;BME280;48197;42.732;27.192;2023-04-06T05:36:57;99362.34;;;5.73;100.00
62201;BME280;48197;42.732;27.192;2023-04-06T05:39:23;99362.84;;;5.86;100.00
62201;BME280;48197;42.732;27.192;2023-04-06T05:41:50;99362.19;;;6.04;100.00
62201;BME280;48197;42.732;27.192;2023-04-06T05:44:16;99365.44;;;6.20;100.00
62201;BME280;48197;42.732;27.192;2023-04-06T05:46:43;99356.06;;;6.21;100.00
62201;BME280;48197;42.732;27.192;2023-04-06T05:49:09;99358.00;;;6.24;100.00
62201;BME280;48197;42.732;27.192;2023-04-06T05:51:36;99357.31;;;6.38;100.00
62201;BME280;48197;42.732;27.192;2023-04-06T05:54:03;99359.38;;;6.66;100.00
62201;BME280;48197;42.732;27.192;2023-04-06T05:56:29;99352.81;;;7.00;100.00
62201;BME280;48197;42.732;27.192;2023-04-06T05:58:57;99345.81;;;7.42;100.00
62201;BME280;48197;42.732;27.192;2023-04-06T06:01:23;99348.56;;;7.60;100.00
62201;BME280;48197;42.732;27.192;2023-04-06T06:03:49;99336.75;;;7.48;100.00
62201;BME280;48197;42.732;27.192;2023-04-06T06:06:16;99351.69;;;7.44;100.00
62201;BME280;48197;42.732;27.192;2023-04-06T06:08:42;99340.69;;;7.33;100.00
62201;BME280;48197;42.732;27.192;2023-04-06T06:11:09;99342.25;;;7.23;100.00
62201;BME280;48197;42.732;27.192;2023-04-06T06:13:35;99343.81;;;7.24;100.00
62201;BME280;48197;42.732;27.192;2023-04-06T06:16:02;99348.16;;;7.40;100.00
62201;BME280;48197;42.732;27.192;2023-04-06T06:18:31;99340.72;;;7.47;100.00
62201;BME280;48197;42.732;27.192;2023-04-06T06:20:58;99339.13;;;7.35;100.00
62201;BME280;48197;42.732;27.192;2023-04-06T06:23:26;99337.53;;;7.20;100.00
62201;BME280;48197;42.732;27.192;2023-04-06T06:25:52;99343.44;;;7.15;100.00
62201;BME280;48197;42.732;27.192;2023-04-06T06:28:19;99335.97;;;7.37;100.00
62201;BME280;48197;42.732;27.192;2023-04-06T06:30:46;99337.56;;;7.67;100.00
62201;BME280;48197;42.732;27.192;2023-04-06T06:33:12;99344.63;;;7.86;100.00
62201;BME280;48197;42.732;27.192;2023-04-06T06:35:39;99342.25;;;7.98;100.00
62201;BME280;48197;42.732;27.192;2023-04-06T06:38:06;99341.81;;;8.04;100.00
62201;BME280;48197;42.732;27.192;2023-04-06T06:40:33;99345.38;;;8.01;100.00
62201;BME280;48197;42.732;27.192;2023-04-06T06:42:59;99352.81;;;8.22;100.00
62201;BME280;48197;42.732;27.192;2023-04-06T06:45:26;99348.03;;;8.44;100.00
62201;BME280;48197;42.732;27.192;2023-04-06T06:47:53;99348.81;;;8.48;100.00
62201;BME280;48197;42.732;27.192;2023-04-06T06:50:19;99356.28;;;8.51;100.00
62201;BME280;48197;42.732;27.192;2023-04-06T06:52:46;99350.41;;;8.42;100.00
62201;BME280;48197;42.732;27.192;2023-04-06T06:55:13;99351.97;;;8.46;100.00
62201;BME280;48197;42.732;27.192;2023-04-06T06:57:39;99354.69;;;8.57;100.00
62201;BME280;48197;42.732;27.192;2023-04-06T07:00:09;99352.97;;;8.92;100.00
62201;BME280;48197;42.732;27.192;2023-04-06T07:02:35;99352.34;;;9.26;100.00
62201;BME280;48197;42.732;27.192;2023-04-06T07:05:02;99360.22;;;9.27;100.00
62201;BME280;48197;42.732;27.192;2023-04-06T07:07:29;99360.28;;;9.13;100.00
62201;BME280;48197;42.732;27.192;2023-04-06T07:09:56;99360.28;;;9.16;100.00
62201;BME280;48197;42.732;27.192;2023-04-06T07:12:23;99355.47;;;9.31;100.00
62201;BME280;48197;42.732;27.192;2023-04-06T07:14:50;99354.44;;;9.59;100.00
62201;BME280;48197;42.732;27.192;2023-04-06T07:17:16;99353.47;;;9.84;100.00
62201;BME280;48197;42.732;27.192;2023-04-06T07:19:43;99353.59;;;9.66;100.00
62201;BME280;48197;42.732;27.192;2023-04-06T07:22:09;99352.53;;;9.56;100.00
62201;BME280;48197;42.732;27.192;2023-04-06T07:24:36;99358.53;;;9.40;100.00
62201;BME280;48197;42.732;27.192;2023-04-06T07:27:02;99363.22;;;9.47;100.00
62201;BME280;48197;42.732;27.192;2023-04-06T07:29:28;99350.91;;;9.63;100.00
62201;BME280;48197;42.732;27.192;2023-04-06T07:31:55;99354.91;;;9.54;100.00
62201;BME280;48197;42.732;27.192;2023-04-06T07:34:22;99355.81;;;9.37;100.00
62201;BME280;48197;42.732;27.192;2023-04-06T07:36:48;99355.81;;;9.37;100.00
62201;BME280;48197;42.732;27.192;2023-04-06T07:39:15;99361.66;;;9.46;100.00
62201;BME280;48197;42.732;27.192;2023-04-06T07:41:41;99363.13;;;9.58;100.00
62201;BME280;48197;42.732;27.192;2023-04-06T07:44:08;99358.69;;;9.71;100.00
62201;BME280;48197;42.732;27.192;2023-04-06T07:46:34;99355.38;;;9.91;100.00
62201;BME280;48197;42.732;27.192;2023-04-06T07:49:02;99356.44;;;10.00;100.00
62201;BME280;48197;42.732;27.192;2023-04-06T07:51:28;99354.06;;;10.02;100.00
62201;BME280;48197;42.732;27.192;2023-04-06T07:53:55;99359.22;;;10.00;100.00
62201;BME280;48197;42.732;27.192;2023-04-06T07:56:21;99355.13;;;10.16;100.00
62201;BME280;48197;42.732;27.192;2023-04-06T07:58:48;99353.66;;;10.46;100.00
62201;BME280;48197;42.732;27.192;2023-04-06T08:01:15;99349.72;;;11.82;100.00
62201;BME280;48197;42.732;27.192;2023-04-06T08:03:43;99339.09;;;13.54;100.00
62201;BME280;48197;42.732;27.192;2023-04-06T08:06:09;99344.38;;;14.26;100.00
62201;BME280;48197;42.732;27.192;2023-04-06T08:08:35;99348.84;;;14.07;98.82
62201;BME280;48197;42.732;27.192;2023-04-06T08:11:02;99337.59;;;13.98;96.68
62201;BME280;48197;42.732;27.192;2023-04-06T08:13:29;99342.66;;;13.71;89.80
62201;BME280;48197;42.732;27.192;2023-04-06T08:15:56;99343.00;;;13.03;99.53
62201;BME280;48197;42.732;27.192;2023-04-06T08:18:23;99344.50;;;12.52;94.96
62201;BME280;48197;42.732;27.192;2023-04-06T08:20:50;99340.56;;;12.09;98.22
62201;BME280;48197;42.732;27.192;2023-04-06T08:23:16;99336.25;;;11.61;93.13
62201;BME280;48197;42.732;27.192;2023-04-06T08:25:43;99333.50;;;11.34;90.60
62201;BME280;48197;42.732;27.192;2023-04-06T08:28:10;99328.59;;;11.18;90.22
62201;BME280;48197;42.732;27.192;2023-04-06T08:30:39;99334.84;;;11.22;93.05
62201;BME280;48197;42.732;27.192;2023-04-06T08:33:05;99331.34;;;11.45;92.78
62201;BME280;48197;42.732;27.192;2023-04-06T08:35:32;99331.38;;;11.92;91.35
62201;BME280;48197;42.732;27.192;2023-04-06T08:37:59;99335.16;;;12.22;90.65
62201;BME280;48197;42.732;27.192;2023-04-06T08:40:26;99331.53;;;12.65;91.36
62201;BME280;48197;42.732;27.192;2023-04-06T08:42:55;99323.41;;;12.94;86.70
62201;BME280;48197;42.732;27.192;2023-04-06T08:45:22;99315.41;;;13.33;91.51
62201;BME280;48197;42.732;27.192;2023-04-06T08:47:52;99322.56;;;13.96;84.62
62201;BME280;48197;42.732;27.192;2023-04-06T08:50:19;99314.66;;;14.11;81.89
62201;BME280;48197;42.732;27.192;2023-04-06T08:52:46;99318.22;;;13.95;87.63
62201;BME280;48197;42.732;27.192;2023-04-06T08:55:14;99318.78;;;13.73;83.26
62201;BME280;48197;42.732;27.192;2023-04-06T08:57:41;99318.13;;;13.00;90.24
62201;BME280;48197;42.732;27.192;2023-04-06T09:00:09;99313.22;;;12.51;88.80
62201;BME280;48197;42.732;27.192;2023-04-06T09:02:39;99311.19;;;11.68;84.04
62201;BME280;48197;42.732;27.192;2023-04-06T09:05:07;99313.03;;;11.28;86.99
62201;BME280;48197;42.732;27.192;2023-04-06T09:07:35;99315.16;;;12.14;91.12
62201;BME280;48197;42.732;27.192;2023-04-06T09:10:02;99319.53;;;13.08;83.67
62201;BME280;48197;42.732;27.192;2023-04-06T09:12:29;99310.22;;;13.35;78.25
62201;BME280;48197;42.732;27.192;2023-04-06T09:14:56;99317.66;;;12.85;82.76
62201;BME280;48197;42.732;27.192;2023-04-06T09:17:23;99312.38;;;12.34;83.93
62201;BME280;48197;42.732;27.192;2023-04-06T09:19:50;99316.75;;;12.12;83.42
62201;BME280;48197;42.732;27.192;2023-04-06T09:22:17;99320.41;;;11.85;79.67
62201;BME280;48197;42.732;27.192;2023-04-06T09:24:45;99311.78;;;11.79;81.99
62201;BME280;48197;42.732;27.192;2023-04-06T09:27:12;99317.34;;;12.23;82.47
62201;BME280;48197;42.732;27.192;2023-04-06T09:29:39;99315.72;;;12.25;76.54
62201;BME280;48197;42.732;27.192;2023-04-06T09:32:06;99310.53;;;12.28;77.55
62201;BME280;48197;42.732;27.192;2023-04-06T09:34:40;99311.66;;;12.30;77.22
62201;BME280;48197;42.732;27.192;2023-04-06T09:37:16;99302.72;;;12.42;80.46
62201;BME280;48197;42.732;27.192;2023-04-06T10:10:43;99300.97;;;11.41;85.71
62201;BME280;48197;42.732;27.192;2023-04-06T10:13:09;99302.84;;;11.48;88.59
62201;BME280;48197;42.732;27.192;2023-04-06T10:15:37;99306.50;;;11.65;91.64
62201;BME280;48197;42.732;27.192;2023-04-06T10:18:04;99301.84;;;11.82;88.29
62201;BME280;48197;42.732;27.192;2023-04-06T10:20:39;99296.25;;;11.85;84.80
62201;BME280;48197;42.732;27.192;2023-04-06T10:25:36;99300.84;;;11.49;86.13
62201;BME280;48197;42.732;27.192;2023-04-06T10:28:07;99300.47;;;11.23;86.01
62201;BME280;48197;42.732;27.192;2023-04-06T10:30:34;99304.06;;;11.20;89.78
62201;BME280;48197;42.732;27.192;2023-04-06T10:33:24;99302.34;;;11.30;87.54
62201;BME280;48197;42.732;27.192;2023-04-06T10:35:50;99295.25;;;11.76;86.08
62201;BME280;48197;42.732;27.192;2023-04-06T10:38:17;99298.81;;;12.40;82.81
62201;BME280;48197;42.732;27.192;2023-04-06T10:40:47;99292.56;;;13.08;80.25
62201;BME280;48197;42.732;27.192;2023-04-06T10:43:22;99293.03;;;13.56;78.75
62201;BME280;48197;42.732;27.192;2023-04-06T10:45:56;99289.03;;;13.57;78.73
62201;BME280;48197;42.732;27.192;2023-04-06T10:48:23;99290.22;;;13.07;77.31
62201;BME280;48197;42.732;27.192;2023-04-06T10:50:52;99295.44;;;12.69;78.73
62201;BME280;48197;42.732;27.192;2023-04-06T10:53:22;99286.16;;;13.77;81.38
62201;BME280;48197;42.732;27.192;2023-04-06T10:55:50;99275.75;;;15.29;76.41
62201;BME280;48197;42.732;27.192;2023-04-06T10:58:17;99273.69;;;16.25;74.74
62201;BME280;48197;42.732;27.192;2023-04-06T11:00:49;99274.28;;;16.42;73.53
62201;BME280;48197;42.732;27.192;2023-04-06T11:03:16;99263.13;;;15.50;74.21
62201;BME280;48197;42.732;27.192;2023-04-06T11:05:46;99268.53;;;14.55;72.69
62201;BME280;48197;42.732;27.192;2023-04-06T11:08:32;99255.69;;;14.45;75.23
62201;BME280;48197;42.732;27.192;2023-04-06T11:11:31;99264.22;;;14.38;75.00
62201;BME280;48197;42.732;27.192;2023-04-06T11:13:55;99262.47;;;14.02;69.16
62201;BME280;48197;42.732;27.192;2023-04-06T11:16:26;99262.06;;;13.41;69.23
62201;BME280;48197;42.732;27.192;2023-04-06T11:18:55;99251.16;;;13.34;70.43
62201;BME280;48197;42.732;27.192;2023-04-06T11:21:41;99265.25;;;13.40;70.55
62201;BME280;48197;42.732;27.192;2023-04-06T11:26:40;99254.16;;;13.40;70.66
62201;BME280;48197;42.732;27.192;2023-04-06T11:29:06;99240.16;;;13.76;72.05
62201;BME280;48197;42.732;27.192;2023-04-06T11:31:46;99248.63;;;13.40;70.39
62201;BME280;48197;42.732;27.192;2023-04-06T11:34:15;99244.97;;;13.43;73.42
62201;BME280;48197;42.732;27.192;2023-04-06T11:36:43;99239.50;;;13.56;72.22
62201;BME280;48197;42.732;27.192;2023-04-06T11:39:12;99239.19;;;14.80;71.54
62201;BME280;48197;42.732;27.192;2023-04-06T11:41:38;99236.63;;;16.69;67.22
62201;BME280;48197;42.732;27.192;2023-04-06T11:44:05;99225.72;;;17.61;63.53
62201;BME280;48197;42.732;27.192;2023-04-06T11:46:32;99222.28;;;18.22;62.71
62201;BME280;48197;42.732;27.192;2023-04-06T11:48:59;99225.50;;;18.48;50.52
62201;BME280;48197;42.732;27.192;2023-04-06T11:51:26;99232.34;;;17.45;50.34
62201;BME280;48197;42.732;27.192;2023-04-06T11:53:53;99239.00;;;16.04;50.25
62201;BME280;48197;42.732;27.192;2023-04-06T11:56:27;99238.41;;;16.31;52.49
62201;BME280;48197;42.732;27.192;2023-04-06T11:58:57;99238.94;;;15.95;48.66
62201;BME280;48197;42.732;27.192;2023-04-06T12:01:25;99231.44;;;16.27;52.59
62201;BME280;48197;42.732;27.192;2023-04-06T12:03:52;99223.06;;;17.48;50.84
62201;BME280;48197;42.732;27.192;2023-04-06T12:06:19;99216.22;;;18.23;50.68
62201;BME280;48197;42.732;27.192;2023-04-06T12:08:46;99222.69;;;18.39;48.42
62201;BME280;48197;42.732;27.192;2023-04-06T12:11:13;99216.91;;;18.51;49.76
62201;BME280;48197;42.732;27.192;2023-04-06T12:13:39;99215.50;;;18.98;51.16
62201;BME280;48197;42.732;27.192;2023-04-06T12:16:06;99223.47;;;18.48;48.31
62201;BME280;48197;42.732;27.192;2023-04-06T12:18:32;99228.38;;;17.83;50.00
62201;BME280;48197;42.732;27.192;2023-04-06T12:20:59;99233.22;;;17.14;48.85
62201;BME280;48197;42.732;27.192;2023-04-06T12:23:26;99223.47;;;16.16;46.34
62201;BME280;48197;42.732;27.192;2023-04-06T12:25:52;99223.66;;;15.30;51.08
62201;BME280;48197;42.732;27.192;2023-04-06T12:28:20;99223.59;;;14.95;50.32
62201;BME280;48197;42.732;27.192;2023-04-06T12:30:49;99208.09;;;15.20;50.87
62201;BME280;48197;42.732;27.192;2023-04-06T12:33:15;99206.94;;;15.65;52.00
62201;BME280;48197;42.732;27.192;2023-04-06T12:35:42;99209.44;;;15.85;49.49
62201;BME280;48197;42.732;27.192;2023-04-06T12:38:08;99193.25;;;17.45;48.13
62201;BME280;48197;42.732;27.192;2023-04-06T12:40:38;99200.81;;;18.28;46.14
62201;BME280;48197;42.732;27.192;2023-04-06T12:43:06;99198.97;;;18.15;45.49
62201;BME280;48197;42.732;27.192;2023-04-06T12:45:33;99198.28;;;16.60;46.89
62201;BME280;48197;42.732;27.192;2023-04-06T12:47:59;99200.91;;;15.79;47.05
62201;BME280;48197;42.732;27.192;2023-04-06T12:50:26;99196.75;;;15.49;48.10
62201;BME280;48197;42.732;27.192;2023-04-06T12:52:52;99205.09;;;15.14;48.59
62201;BME280;48197;42.732;27.192;2023-04-06T12:55:18;99193.47;;;14.81;50.26
62201;BME280;48197;42.732;27.192;2023-04-06T12:57:46;99199.84;;;14.39;51.45
62201;BME280;48197;42.732;27.192;2023-04-06T13:00:13;99193.41;;;13.87;53.27
62201;BME280;48197;42.732;27.192;2023-04-06T13:02:40;99195.56;;;13.67;54.80
62201;BME280;48197;42.732;27.192;2023-04-06T13:05:13;99196.63;;;13.57;54.86
62201;BME280;48197;42.732;27.192;2023-04-06T13:07:44;99194.47;;;13.48;55.52
62201;BME280;48197;42.732;27.192;2023-04-06T13:10:12;99194.13;;;13.46;55.79
62201;BME280;48197;42.732;27.192;2023-04-06T13:12:38;99194.78;;;13.66;56.79
62201;BME280;48197;42.732;27.192;2023-04-06T13:15:05;99193.13;;;13.98;55.75
62201;BME280;48197;42.732;27.192;2023-04-06T13:17:32;99187.22;;;13.96;55.79
62201;BME280;48197;42.732;27.192;2023-04-06T13:19:58;99183.50;;;13.86;55.99
62201;BME280;48197;42.732;27.192;2023-04-06T13:22:25;99180.78;;;13.99;56.71
62201;BME280;48197;42.732;27.192;2023-04-06T13:24:52;99187.19;;;14.25;58.29
62201;BME280;48197;42.732;27.192;2023-04-06T13:27:18;99182.66;;;14.70;61.06